sensor_id;sensor_type;location;lat;lon;timestamp;pressure;altitude;pressure_sealevel;temperature;humidity
32733;BME280;11867;51.198;11.966;2023-01-13T00:00:29;99602.41;;;10.42;86.29
32733;BME280;11867;51.198;11.966;2023-01-13T00:01:32;99597.19;;;10.59;85.55
32733;BME280;11867;51.198;11.966;2023-01-13T00:02:34;99590.75;;;10.69;85.24
32733;BME280;11867;51.198;11.966;2023-01-13T00:03:37;99603.47;;;10.74;84.85
32733;BME280;11867;51.198;11.966;2023-01-13T00:04:38;99601.84;;;10.59;85.31
32733;BME280;11867;51.198;11.966;2023-01-13T00:05:41;99583.94;;;10.53;85.43
32733;BME280;11867;51.198;11.966;2023-01-13T00:06:43;99599.66;;;10.42;86.14
32733;BME280;11867;51.198;11.966;2023-01-13T00:07:47;99579.63;;;10.33;86.33
32733;BME280;11867;51.198;11.966;2023-01-13T00:08:50;99589.28;;;10.44;86.08
32733;BME280;11867;51.198;11.966;2023-01-13T00:09:53;99584.75;;;10.53;85.69
32733;BME280;11867;51.198;11.966;2023-01-13T00:10:54;99582.81;;;10.40;86.06
32733;BME280;11867;51.198;11.966;2023-01-13T00:11:57;99584.03;;;10.47;85.90
32733;BME280;11867;51.198;11.966;2023-01-13T00:12:59;99584.41;;;10.41;85.82
32733;BME280;11867;51.198;11.966;2023-01-13T00:14:02;99594.34;;;10.50;85.52
32733;BME280;11867;51.198;11.966;2023-01-13T00:15:05;99585.16;;;10.27;86.33
32733;BME280;11867;51.198;11.966;2023-01-13T00:16:10;99594.81;;;10.39;86.04
32733;BME280;11867;51.198;11.966;2023-01-13T00:17:13;99586.34;;;10.40;86.21
32733;BME280;11867;51.198;11.966;2023-01-13T00:18:15;99584.03;;;10.47;85.90
32733;BME280;11867;51.198;11.966;2023-01-13T00:19:17;99590.81;;;10.50;85.81
32733;BME280;11867;51.198;11.966;2023-01-13T00:20:19;99588.66;;;10.47;85.78
32733;BME280;11867;51.198;11.966;2023-01-13T00:21:23;99599.34;;;10.43;85.64
32733;BME280;11867;51.198;11.966;2023-01-13T00:22:25;99594.72;;;10.44;86.03
32733;BME280;11867;51.198;11.966;2023-01-13T00:23:30;99598.78;;;10.46;85.77
32733;BME280;11867;51.198;11.966;2023-01-13T00:24:33;99596.63;;;10.43;85.66
32733;BME280;11867;51.198;11.966;2023-01-13T00:25:34;99589.78;;;10.27;86.45
32733;BME280;11867;51.198;11.966;2023-01-13T00:26:37;99597.66;;;10.47;86.27
32733;BME280;11867;51.198;11.966;2023-01-13T00:27:39;99596.47;;;10.54;85.66
32733;BME280;11867;51.198;11.966;2023-01-13T00:28:41;99594.97;;;10.61;85.45
32733;BME280;11867;51.198;11.966;2023-01-13T00:29:43;99589.53;;;10.61;85.15
32733;BME280;11867;51.198;11.966;2023-01-13T00:30:45;99588.09;;;10.50;85.53
32733;BME280;11867;51.198;11.966;2023-01-13T00:31:48;99597.47;;;10.44;85.62
32733;BME280;11867;51.198;11.966;2023-01-13T00:32:50;99600.38;;;10.47;85.52
32733;BME280;11867;51.198;11.966;2023-01-13T00:33:54;99583.84;;;10.44;85.88
32733;BME280;11867;51.198;11.966;2023-01-13T00:34:57;99594.00;;;10.38;86.36
32733;BME280;11867;51.198;11.966;2023-01-13T00:36:00;99583.84;;;10.44;86.42
32733;BME280;11867;51.198;11.966;2023-01-13T00:37:03;99585.44;;;10.45;86.20
32733;BME280;11867;51.198;11.966;2023-01-13T00:38:05;99593.09;;;10.43;86.07
32733;BME280;11867;51.198;11.966;2023-01-13T00:39:09;99586.34;;;10.54;85.64
32733;BME280;11867;51.198;11.966;2023-01-13T00:40:11;99577.03;;;10.41;85.43
32733;BME280;11867;51.198;11.966;2023-01-13T00:41:15;99575.16;;;10.56;85.55
32733;BME280;11867;51.198;11.966;2023-01-13T00:42:17;99577.09;;;10.55;85.50
32733;BME280;11867;51.198;11.966;2023-01-13T00:43:43;99582.88;;;10.67;84.88
32733;BME280;11867;51.198;11.966;2023-01-13T00:44:45;99577.66;;;10.52;85.70
32733;BME280;11867;51.198;11.966;2023-01-13T00:45:48;99578.91;;;10.60;85.43
32733;BME280;11867;51.198;11.966;2023-01-13T00:46:51;99575.38;;;10.59;85.28
32733;BME280;11867;51.198;11.966;2023-01-13T00:47:54;99574.00;;;10.76;84.85
32733;BME280;11867;51.198;11.966;2023-01-13T00:48:56;99578.53;;;10.80;84.49
32733;BME280;11867;51.198;11.966;2023-01-13T00:49:58;99577.31;;;10.73;84.52
32733;BME280;11867;51.198;11.966;2023-01-13T00:51:01;99579.63;;;10.65;84.60
32733;BME280;11867;51.198;11.966;2023-01-13T00:52:04;99573.97;;;10.62;85.19
32733;BME280;11867;51.198;11.966;2023-01-13T00:53:06;99576.09;;;10.79;84.96
32733;BME280;11867;51.198;11.966;2023-01-13T00:54:10;99576.94;;;10.79;84.18
32733;BME280;11867;51.198;11.966;2023-01-13T00:55:11;99567.94;;;10.65;84.39
32733;BME280;11867;51.198;11.966;2023-01-13T00:56:15;99581.28;;;10.47;84.94
32733;BME280;11867;51.198;11.966;2023-01-13T00:57:24;99583.81;;;10.25;85.97
32733;BME280;11867;51.198;11.966;2023-01-13T00:58:29;99564.44;;;10.26;86.62
32733;BME280;11867;51.198;11.966;2023-01-13T00:59:31;99571.97;;;10.35;86.25
32733;BME280;11867;51.198;11.966;2023-01-13T01:00:34;99574.13;;;10.38;86.16
32733;BME280;11867;51.198;11.966;2023-01-13T01:01:36;99575.84;;;10.47;85.82
32733;BME280;11867;51.198;11.966;2023-01-13T01:02:39;99571.28;;;10.43;85.92
32733;BME280;11867;51.198;11.966;2023-01-13T01:03:41;99576.97;;;10.60;85.57
32733;BME280;11867;51.198;11.966;2023-01-13T01:04:43;99579.34;;;10.81;84.86
32733;BME280;11867;51.198;11.966;2023-01-13T01:05:45;99584.41;;;10.74;84.59
32733;BME280;11867;51.198;11.966;2023-01-13T01:06:48;99580.44;;;10.66;84.97
32733;BME280;11867;51.198;11.966;2023-01-13T01:07:49;99579.19;;;10.44;85.60
32733;BME280;11867;51.198;11.966;2023-01-13T01:08:53;99573.09;;;10.34;86.15
32733;BME280;11867;51.198;11.966;2023-01-13T01:09:56;99581.09;;;10.44;85.92
32733;BME280;11867;51.198;11.966;2023-01-13T01:11:00;99576.47;;;10.58;85.75
32733;BME280;11867;51.198;11.966;2023-01-13T01:12:02;99579.53;;;10.57;85.40
32733;BME280;11867;51.198;11.966;2023-01-13T01:13:05;99583.03;;;10.57;85.48
32733;BME280;11867;51.198;11.966;2023-01-13T01:14:09;99575.72;;;10.72;85.02
32733;BME280;11867;51.198;11.966;2023-01-13T01:15:11;99584.81;;;10.81;84.54
32733;BME280;11867;51.198;11.966;2023-01-13T01:16:15;99584.91;;;10.76;84.74
32733;BME280;11867;51.198;11.966;2023-01-13T01:17:18;99580.50;;;10.47;85.51
32733;BME280;11867;51.198;11.966;2023-01-13T01:18:20;99581.50;;;10.51;85.66
32733;BME280;11867;51.198;11.966;2023-01-13T01:19:22;99573.69;;;10.63;85.49
32733;BME280;11867;51.198;11.966;2023-01-13T01:20:24;99576.00;;;10.70;84.91
32733;BME280;11867;51.198;11.966;2023-01-13T01:21:27;99581.38;;;10.75;84.55
32733;BME280;11867;51.198;11.966;2023-01-13T01:22:29;99584.81;;;10.81;84.48
32733;BME280;11867;51.198;11.966;2023-01-13T01:23:32;99583.81;;;10.90;84.37
32733;BME280;11867;51.198;11.966;2023-01-13T01:24:34;99585.13;;;10.93;83.91
32733;BME280;11867;51.198;11.966;2023-01-13T01:25:38;99586.44;;;10.82;84.13
32733;BME280;11867;51.198;11.966;2023-01-13T01:26:40;99576.50;;;10.72;84.45
32733;BME280;11867;51.198;11.966;2023-01-13T01:27:42;99570.88;;;10.82;84.05
32733;BME280;11867;51.198;11.966;2023-01-13T01:28:45;99580.03;;;10.73;84.84
32733;BME280;11867;51.198;11.966;2023-01-13T01:29:47;99583.41;;;10.83;84.64
32733;BME280;11867;51.198;11.966;2023-01-13T01:30:49;99579.63;;;10.65;85.06
32733;BME280;11867;51.198;11.966;2023-01-13T01:31:52;99580.44;;;10.66;85.03
32733;BME280;11867;51.198;11.966;2023-01-13T01:32:55;99589.75;;;10.79;84.82
32733;BME280;11867;51.198;11.966;2023-01-13T01:33:58;99568.81;;;10.60;84.74
32733;BME280;11867;51.198;11.966;2023-01-13T01:35:01;99577.13;;;10.36;85.95
32733;BME280;11867;51.198;11.966;2023-01-13T01:36:03;99580.75;;;10.32;86.04
32733;BME280;11867;51.198;11.966;2023-01-13T01:37:05;99587.88;;;10.46;85.97
32733;BME280;11867;51.198;11.966;2023-01-13T01:38:07;99584.97;;;10.57;85.35
32733;BME280;11867;51.198;11.966;2023-01-13T01:39:10;99585.78;;;10.57;85.08
32733;BME280;11867;51.198;11.966;2023-01-13T01:40:12;99578.34;;;10.77;84.96
32733;BME280;11867;51.198;11.966;2023-01-13T01:41:18;99579.91;;;10.50;85.55
32733;BME280;11867;51.198;11.966;2023-01-13T01:42:21;99594.41;;;10.45;86.05
32733;BME280;11867;51.198;11.966;2023-01-13T01:43:46;99587.19;;;10.68;85.34
32733;BME280;11867;51.198;11.966;2023-01-13T01:45:14;99580.53;;;10.75;84.56
32733;BME280;11867;51.198;11.966;2023-01-13T01:46:18;99582.91;;;10.81;84.23
32733;BME280;11867;51.198;11.966;2023-01-13T01:47:21;99587.63;;;10.76;84.31
32733;BME280;11867;51.198;11.966;2023-01-13T01:48:24;99583.38;;;10.69;84.55
32733;BME280;11867;51.198;11.966;2023-01-13T01:49:31;99569.63;;;10.75;84.34
32733;BME280;11867;51.198;11.966;2023-01-13T01:50:34;99583.84;;;11.04;83.85
32733;BME280;11867;51.198;11.966;2023-01-13T01:51:41;99580.16;;;10.95;83.46
32733;BME280;11867;51.198;11.966;2023-01-13T01:52:48;99579.59;;;11.12;83.10
32733;BME280;11867;51.198;11.966;2023-01-13T01:53:52;99582.00;;;11.14;83.08
32733;BME280;11867;51.198;11.966;2023-01-13T01:54:59;99575.53;;;11.23;82.55
32733;BME280;11867;51.198;11.966;2023-01-13T01:56:04;99564.44;;;10.92;83.30
32733;BME280;11867;51.198;11.966;2023-01-13T01:57:13;99571.91;;;11.00;83.12
32733;BME280;11867;51.198;11.966;2023-01-13T01:58:19;99578.19;;;11.15;82.43
32733;BME280;11867;51.198;11.966;2023-01-13T01:59:25;99579.78;;;11.16;82.61
32733;BME280;11867;51.198;11.966;2023-01-13T02:00:29;99571.94;;;11.14;82.51
32733;BME280;11867;51.198;11.966;2023-01-13T02:01:32;99568.56;;;11.03;82.61
32733;BME280;11867;51.198;11.966;2023-01-13T02:02:35;99576.97;;;11.21;82.61
32733;BME280;11867;51.198;11.966;2023-01-13T02:03:42;99570.69;;;11.06;83.35
32733;BME280;11867;51.198;11.966;2023-01-13T02:04:49;99571.50;;;11.21;82.98
32733;BME280;11867;51.198;11.966;2023-01-13T02:05:53;99575.44;;;11.15;82.79
32733;BME280;11867;51.198;11.966;2023-01-13T02:06:55;99570.50;;;11.03;83.01
32733;BME280;11867;51.198;11.966;2023-01-13T02:07:59;99565.72;;;11.22;82.80
32733;BME280;11867;51.198;11.966;2023-01-13T02:09:02;99570.00;;;11.15;82.96
32733;BME280;11867;51.198;11.966;2023-01-13T02:10:07;99568.97;;;11.38;82.43
32733;BME280;11867;51.198;11.966;2023-01-13T02:11:25;99566.81;;;11.49;81.70
32733;BME280;11867;51.198;11.966;2023-01-13T02:12:45;99565.44;;;11.38;81.85
32733;BME280;11867;51.198;11.966;2023-01-13T02:13:48;99561.88;;;11.51;81.80
32733;BME280;11867;51.198;11.966;2023-01-13T02:14:50;99555.09;;;11.62;81.42
32733;BME280;11867;51.198;11.966;2023-01-13T02:15:56;99561.25;;;11.68;80.77
32733;BME280;11867;51.198;11.966;2023-01-13T02:17:09;99553.88;;;11.55;80.84
32733;BME280;11867;51.198;11.966;2023-01-13T02:18:32;99546.09;;;11.48;81.63
32733;BME280;11867;51.198;11.966;2023-01-13T02:21:48;99568.06;;;11.15;82.63
32733;BME280;11867;51.198;11.966;2023-01-13T02:23:36;99561.59;;;11.25;83.14
32733;BME280;11867;51.198;11.966;2023-01-13T02:28:24;99553.78;;;11.82;80.57
32733;BME280;11867;51.198;11.966;2023-01-13T02:29:47;99542.72;;;11.65;80.94
32733;BME280;11867;51.198;11.966;2023-01-13T02:31:13;99553.88;;;11.55;81.18
32733;BME280;11867;51.198;11.966;2023-01-13T02:32:39;99541.25;;;11.45;82.03
32733;BME280;11867;51.198;11.966;2023-01-13T02:33:57;99548.13;;;11.42;81.77
32733;BME280;11867;51.198;11.966;2023-01-13T02:35:05;99552.09;;;11.36;82.27
32733;BME280;11867;51.198;11.966;2023-01-13T02:36:14;99547.97;;;11.25;82.34
32733;BME280;11867;51.198;11.966;2023-01-13T02:37:26;99545.13;;;11.30;82.31
32733;BME280;11867;51.198;11.966;2023-01-13T02:38:34;99542.28;;;11.35;82.63
32733;BME280;11867;51.198;11.966;2023-01-13T02:39:45;99538.34;;;11.41;82.29
32733;BME280;11867;51.198;11.966;2023-01-13T02:40:52;99536.66;;;11.04;83.17
32733;BME280;11867;51.198;11.966;2023-01-13T02:42:04;99541.00;;;11.19;83.23
32733;BME280;11867;51.198;11.966;2023-01-13T02:43:31;99535.84;;;11.17;83.46
32733;BME280;11867;51.198;11.966;2023-01-13T02:44:58;99533.81;;;11.23;83.31
32733;BME280;11867;51.198;11.966;2023-01-13T02:46:06;99529.31;;;11.41;82.59
32733;BME280;11867;51.198;11.966;2023-01-13T02:47:18;99538.72;;;11.35;82.58
32733;BME280;11867;51.198;11.966;2023-01-13T02:48:22;99536.13;;;11.43;82.52
32733;BME280;11867;51.198;11.966;2023-01-13T02:49:30;99526.34;;;11.65;82.22
32733;BME280;11867;51.198;11.966;2023-01-13T02:50:36;99528.88;;;11.61;82.15
32733;BME280;11867;51.198;11.966;2023-01-13T02:51:42;99524.97;;;11.54;81.63
32733;BME280;11867;51.198;11.966;2023-01-13T02:52:48;99522.34;;;11.48;82.08
32733;BME280;11867;51.198;11.966;2023-01-13T02:53:53;99522.91;;;11.59;81.94
32733;BME280;11867;51.198;11.966;2023-01-13T02:55:02;99523.63;;;11.65;81.42
32733;BME280;11867;51.198;11.966;2023-01-13T02:56:06;99521.28;;;11.72;81.48
32733;BME280;11867;51.198;11.966;2023-01-13T02:57:09;99522.78;;;11.78;81.07
32733;BME280;11867;51.198;11.966;2023-01-13T02:58:16;99522.84;;;11.87;81.02
32733;BME280;11867;51.198;11.966;2023-01-13T02:59:19;99522.34;;;11.35;82.44
32733;BME280;11867;51.198;11.966;2023-01-13T03:00:28;99522.09;;;11.08;83.47
32733;BME280;11867;51.198;11.966;2023-01-13T03:01:30;99514.94;;;11.13;83.88
32733;BME280;11867;51.198;11.966;2023-01-13T03:02:32;99525.22;;;11.16;83.66
32733;BME280;11867;51.198;11.966;2023-01-13T03:03:34;99514.72;;;11.23;83.49
32733;BME280;11867;51.198;11.966;2023-01-13T03:04:54;99518.34;;;11.18;83.37
32733;BME280;11867;51.198;11.966;2023-01-13T03:06:09;99517.09;;;11.38;83.05
32733;BME280;11867;51.198;11.966;2023-01-13T03:07:40;99516.00;;;11.39;82.84
32733;BME280;11867;51.198;11.966;2023-01-13T03:08:48;99503.53;;;11.47;82.64
32733;BME280;11867;51.198;11.966;2023-01-13T03:09:59;99510.41;;;11.58;82.10
32733;BME280;11867;51.198;11.966;2023-01-13T03:11:07;99511.47;;;11.71;82.19
32733;BME280;11867;51.198;11.966;2023-01-13T03:12:14;99506.16;;;11.88;81.30
32733;BME280;11867;51.198;11.966;2023-01-13T03:13:32;99512.63;;;11.93;80.73
32733;BME280;11867;51.198;11.966;2023-01-13T03:14:41;99512.13;;;11.90;80.75
32733;BME280;11867;51.198;11.966;2023-01-13T03:15:53;99522.28;;;11.76;81.14
32733;BME280;11867;51.198;11.966;2023-01-13T03:17:19;99512.16;;;11.77;81.23
32733;BME280;11867;51.198;11.966;2023-01-13T03:18:33;99513.94;;;11.59;81.67
32733;BME280;11867;51.198;11.966;2023-01-13T03:19:41;99513.94;;;11.59;81.95
32733;BME280;11867;51.198;11.966;2023-01-13T03:20:54;99512.19;;;11.63;81.90
32733;BME280;11867;51.198;11.966;2023-01-13T03:22:12;99510.22;;;11.41;82.67
32733;BME280;11867;51.198;11.966;2023-01-13T03:23:20;99512.44;;;11.52;82.87
32733;BME280;11867;51.198;11.966;2023-01-13T03:24:27;99514.22;;;11.57;82.75
32733;BME280;11867;51.198;11.966;2023-01-13T03:25:33;99509.50;;;11.49;82.55
32733;BME280;11867;51.198;11.966;2023-01-13T03:26:42;99492.44;;;11.43;82.28
32733;BME280;11867;51.198;11.966;2023-01-13T03:27:51;99506.16;;;11.52;82.67
32733;BME280;11867;51.198;11.966;2023-01-13T03:29:01;99503.88;;;11.31;83.04
32733;BME280;11867;51.198;11.966;2023-01-13T03:30:10;99506.09;;;11.43;83.20
32733;BME280;11867;51.198;11.966;2023-01-13T03:31:21;99506.69;;;11.40;83.29
32733;BME280;11867;51.198;11.966;2023-01-13T03:32:29;99510.19;;;11.55;82.81
32733;BME280;11867;51.198;11.966;2023-01-13T03:33:34;99505.94;;;11.62;82.54
32733;BME280;11867;51.198;11.966;2023-01-13T03:34:43;99506.00;;;11.71;81.54
32733;BME280;11867;51.198;11.966;2023-01-13T03:35:49;99507.25;;;11.87;81.66
32733;BME280;11867;51.198;11.966;2023-01-13T03:36:54;99508.13;;;11.74;81.83
32733;BME280;11867;51.198;11.966;2023-01-13T03:38:01;99500.91;;;11.56;82.33
32733;BME280;11867;51.198;11.966;2023-01-13T03:39:08;99505.25;;;11.57;82.86
32733;BME280;11867;51.198;11.966;2023-01-13T03:40:14;99492.44;;;11.43;82.94
32733;BME280;11867;51.198;11.966;2023-01-13T03:41:20;99490.22;;;11.45;82.66
32733;BME280;11867;51.198;11.966;2023-01-13T03:42:25;99496.38;;;11.74;82.54
32733;BME280;11867;51.198;11.966;2023-01-13T03:43:34;99496.25;;;11.56;82.33
32733;BME280;11867;51.198;11.966;2023-01-13T03:44:59;99500.03;;;11.32;83.69
32733;BME280;11867;51.198;11.966;2023-01-13T03:46:07;99492.16;;;11.31;83.65
32733;BME280;11867;51.198;11.966;2023-01-13T03:47:17;99487.53;;;11.18;84.38
32733;BME280;11867;51.198;11.966;2023-01-13T03:48:25;99487.03;;;11.16;84.15
32733;BME280;11867;51.198;11.966;2023-01-13T03:49:32;99499.84;;;11.29;84.40
32733;BME280;11867;51.198;11.966;2023-01-13T03:50:40;99491.16;;;11.27;83.79
32733;BME280;11867;51.198;11.966;2023-01-13T03:51:47;99497.13;;;11.29;84.08
32733;BME280;11867;51.198;11.966;2023-01-13T03:52:54;99495.06;;;11.35;83.66
32733;BME280;11867;51.198;11.966;2023-01-13T03:54:00;99489.94;;;11.33;84.12
32733;BME280;11867;51.198;11.966;2023-01-13T03:55:07;99486.47;;;11.41;83.71
32733;BME280;11867;51.198;11.966;2023-01-13T03:56:16;99493.34;;;11.39;83.66
32733;BME280;11867;51.198;11.966;2023-01-13T03:57:26;99490.34;;;11.63;82.98
32733;BME280;11867;51.198;11.966;2023-01-13T03:58:32;99490.13;;;11.73;82.13
32733;BME280;11867;51.198;11.966;2023-01-13T03:59:40;99486.78;;;11.76;81.78
32733;BME280;11867;51.198;11.966;2023-01-13T04:00:46;99484.91;;;11.63;81.75
32733;BME280;11867;51.198;11.966;2023-01-13T04:01:57;99492.91;;;11.82;82.06
32733;BME280;11867;51.198;11.966;2023-01-13T04:03:06;99494.97;;;11.76;81.67
32733;BME280;11867;51.198;11.966;2023-01-13T04:04:12;99483.63;;;11.46;82.46
32733;BME280;11867;51.198;11.966;2023-01-13T04:05:17;99484.13;;;11.48;82.54
32733;BME280;11867;51.198;11.966;2023-01-13T04:06:25;99490.88;;;11.15;84.44
32733;BME280;11867;51.198;11.966;2023-01-13T04:07:40;99493.19;;;11.21;84.42
32733;BME280;11867;51.198;11.966;2023-01-13T04:08:50;99485.94;;;11.03;84.72
32733;BME280;11867;51.198;11.966;2023-01-13T04:09:54;99496.13;;;11.11;84.71
32733;BME280;11867;51.198;11.966;2023-01-13T04:11:00;99491.47;;;11.11;84.62
32733;BME280;11867;51.198;11.966;2023-01-13T04:12:07;99492.81;;;10.86;85.38
32733;BME280;11867;51.198;11.966;2023-01-13T04:13:11;99496.53;;;11.04;85.02
32733;BME280;11867;51.198;11.966;2023-01-13T04:14:18;99486.34;;;11.10;85.04
32733;BME280;11867;51.198;11.966;2023-01-13T04:15:22;99489.16;;;11.19;84.30
32733;BME280;11867;51.198;11.966;2023-01-13T04:16:25;99491.16;;;11.27;84.25
32733;BME280;11867;51.198;11.966;2023-01-13T04:17:27;99484.56;;;11.28;84.02
32733;BME280;11867;51.198;11.966;2023-01-13T04:18:30;99474.78;;;11.27;83.93
32733;BME280;11867;51.198;11.966;2023-01-13T04:19:32;99469.66;;;11.11;84.45
32733;BME280;11867;51.198;11.966;2023-01-13T04:20:34;99474.69;;;11.18;84.23
32733;BME280;11867;51.198;11.966;2023-01-13T04:21:36;99472.69;;;11.10;84.34
32733;BME280;11867;51.198;11.966;2023-01-13T04:22:39;99473.84;;;10.81;86.09
32733;BME280;11867;51.198;11.966;2023-01-13T04:23:40;99466.44;;;10.96;85.51
32733;BME280;11867;51.198;11.966;2023-01-13T04:24:42;99460.59;;;11.02;85.21
32733;BME280;11867;51.198;11.966;2023-01-13T04:25:45;99470.66;;;11.16;85.06
32733;BME280;11867;51.198;11.966;2023-01-13T04:26:47;99476.00;;;11.21;84.00
32733;BME280;11867;51.198;11.966;2023-01-13T04:27:49;99478.53;;;11.03;84.82
32733;BME280;11867;51.198;11.966;2023-01-13T04:28:51;99479.28;;;10.81;86.07
32733;BME280;11867;51.198;11.966;2023-01-13T04:29:55;99472.31;;;10.75;86.07
32733;BME280;11867;51.198;11.966;2023-01-13T04:30:57;99489.88;;;10.69;86.66
32733;BME280;11867;51.198;11.966;2023-01-13T04:31:59;99491.69;;;10.74;86.87
32733;BME280;11867;51.198;11.966;2023-01-13T04:33:01;99483.41;;;10.79;86.69
32733;BME280;11867;51.198;11.966;2023-01-13T04:34:05;99483.53;;;10.74;86.83
32733;BME280;11867;51.198;11.966;2023-01-13T04:35:08;99477.06;;;10.69;87.01
32733;BME280;11867;51.198;11.966;2023-01-13T04:36:10;99478.56;;;10.76;86.92
32733;BME280;11867;51.198;11.966;2023-01-13T04:37:12;99474.94;;;10.94;86.42
32733;BME280;11867;51.198;11.966;2023-01-13T04:38:17;99458.56;;;10.80;86.12
32733;BME280;11867;51.198;11.966;2023-01-13T04:39:19;99471.09;;;10.81;86.50
32733;BME280;11867;51.198;11.966;2023-01-13T04:40:22;99465.44;;;10.78;86.45
32733;BME280;11867;51.198;11.966;2023-01-13T04:41:23;99460.78;;;10.78;86.68
32733;BME280;11867;51.198;11.966;2023-01-13T04:42:26;99466.84;;;10.89;86.40
32733;BME280;11867;51.198;11.966;2023-01-13T04:43:27;99459.66;;;11.07;85.98
32733;BME280;11867;51.198;11.966;2023-01-13T04:44:30;99459.16;;;11.05;85.09
32733;BME280;11867;51.198;11.966;2023-01-13T04:45:35;99466.13;;;10.97;85.79
32733;BME280;11867;51.198;11.966;2023-01-13T04:46:38;99460.06;;;11.00;85.66
32733;BME280;11867;51.198;11.966;2023-01-13T04:47:39;99461.59;;;10.93;86.13
32733;BME280;11867;51.198;11.966;2023-01-13T04:48:42;99461.00;;;10.96;85.77
32733;BME280;11867;51.198;11.966;2023-01-13T04:49:45;99461.72;;;10.74;86.79
32733;BME280;11867;51.198;11.966;2023-01-13T04:50:48;99465.34;;;10.55;87.81
32733;BME280;11867;51.198;11.966;2023-01-13T04:51:49;99466.34;;;10.59;87.90
32733;BME280;11867;51.198;11.966;2023-01-13T04:52:52;99468.06;;;10.55;88.31
32733;BME280;11867;51.198;11.966;2023-01-13T04:53:54;99469.47;;;10.53;88.13
32733;BME280;11867;51.198;11.966;2023-01-13T04:54:57;99469.97;;;10.41;88.65
32733;BME280;11867;51.198;11.966;2023-01-13T04:55:58;99470.47;;;10.43;88.84
32733;BME280;11867;51.198;11.966;2023-01-13T04:57:01;99462.59;;;10.41;88.90
32733;BME280;11867;51.198;11.966;2023-01-13T04:58:03;99456.75;;;10.48;88.68
32733;BME280;11867;51.198;11.966;2023-01-13T04:59:05;99466.13;;;10.56;88.74
32733;BME280;11867;51.198;11.966;2023-01-13T05:00:09;99470.66;;;10.60;88.22
32733;BME280;11867;51.198;11.966;2023-01-13T05:01:12;99459.78;;;10.60;87.83
32733;BME280;11867;51.198;11.966;2023-01-13T05:02:14;99462.50;;;10.74;87.83
32733;BME280;11867;51.198;11.966;2023-01-13T05:03:20;99464.44;;;10.74;87.62
32733;BME280;11867;51.198;11.966;2023-01-13T05:04:24;99456.25;;;10.74;87.69
32733;BME280;11867;51.198;11.966;2023-01-13T05:05:28;99466.44;;;10.54;88.22
32733;BME280;11867;51.198;11.966;2023-01-13T05:06:31;99463.19;;;10.38;89.06
32733;BME280;11867;51.198;11.966;2023-01-13T05:07:32;99460.97;;;10.40;89.04
32733;BME280;11867;51.198;11.966;2023-01-13T05:08:35;99467.53;;;10.39;89.48
32733;BME280;11867;51.198;11.966;2023-01-13T05:09:36;99459.69;;;10.38;89.30
32733;BME280;11867;51.198;11.966;2023-01-13T05:10:39;99471.19;;;10.48;88.99
32733;BME280;11867;51.198;11.966;2023-01-13T05:11:40;99465.03;;;10.43;89.04
32733;BME280;11867;51.198;11.966;2023-01-13T05:13:01;99462.59;;;10.55;88.87
32733;BME280;11867;51.198;11.966;2023-01-13T05:14:21;99460.38;;;10.43;89.01
32733;BME280;11867;51.198;11.966;2023-01-13T05:15:41;99465.22;;;10.46;88.74
32733;BME280;11867;51.198;11.966;2023-01-13T05:17:02;99459.06;;;10.41;89.12
32733;BME280;11867;51.198;11.966;2023-01-13T05:18:05;99465.50;;;10.31;89.60
32733;BME280;11867;51.198;11.966;2023-01-13T05:19:07;99460.97;;;10.40;89.48
32733;BME280;11867;51.198;11.966;2023-01-13T05:20:11;99468.16;;;10.50;89.09
32733;BME280;11867;51.198;11.966;2023-01-13T05:21:14;99463.31;;;10.61;88.85
32733;BME280;11867;51.198;11.966;2023-01-13T05:22:30;99455.75;;;10.72;88.05
32733;BME280;11867;51.198;11.966;2023-01-13T05:23:50;99461.41;;;10.75;87.61
32733;BME280;11867;51.198;11.966;2023-01-13T05:25:10;99462.59;;;10.55;88.42
32733;BME280;11867;51.198;11.966;2023-01-13T05:26:26;99460.38;;;10.57;88.42
32733;BME280;11867;51.198;11.966;2023-01-13T05:27:28;99456.75;;;10.62;88.37
32733;BME280;11867;51.198;11.966;2023-01-13T05:28:31;99459.19;;;10.63;88.35
32733;BME280;11867;51.198;11.966;2023-01-13T05:29:33;99449.69;;;10.61;88.07
32733;BME280;11867;51.198;11.966;2023-01-13T05:30:36;99449.69;;;10.75;87.80
32733;BME280;11867;51.198;11.966;2023-01-13T05:31:42;99442.19;;;10.66;87.52
32733;BME280;11867;51.198;11.966;2023-01-13T05:32:44;99443.53;;;10.55;88.21
32733;BME280;11867;51.198;11.966;2023-01-13T05:33:46;99447.25;;;10.59;88.35
32733;BME280;11867;51.198;11.966;2023-01-13T05:34:48;99461.09;;;10.49;88.60
32733;BME280;11867;51.198;11.966;2023-01-13T05:35:50;99462.41;;;10.52;88.61
32733;BME280;11867;51.198;11.966;2023-01-13T05:36:54;99460.38;;;10.43;89.19
32733;BME280;11867;51.198;11.966;2023-01-13T05:37:56;99455.63;;;10.49;89.15
32733;BME280;11867;51.198;11.966;2023-01-13T05:38:58;99465.34;;;10.55;88.61
32733;BME280;11867;51.198;11.966;2023-01-13T05:40:00;99458.25;;;10.54;88.65
32733;BME280;11867;51.198;11.966;2023-01-13T05:41:20;99463.41;;;10.42;89.05
32733;BME280;11867;51.198;11.966;2023-01-13T05:42:40;99465.03;;;10.43;89.39
32733;BME280;11867;51.198;11.966;2023-01-13T05:44:00;99461.09;;;10.49;89.03
32733;BME280;11867;51.198;11.966;2023-01-13T05:45:03;99463.41;;;10.56;88.35
32733;BME280;11867;51.198;11.966;2023-01-13T05:46:07;99473.72;;;10.59;88.60
32733;BME280;11867;51.198;11.966;2023-01-13T05:47:10;99462.81;;;10.45;88.70
32733;BME280;11867;51.198;11.966;2023-01-13T05:48:11;99478.06;;;10.46;88.80
32733;BME280;11867;51.198;11.966;2023-01-13T05:49:14;99470.97;;;10.45;88.98
32733;BME280;11867;51.198;11.966;2023-01-13T05:50:17;99469.47;;;10.53;88.91
32733;BME280;11867;51.198;11.966;2023-01-13T05:51:18;99463.19;;;10.52;88.28